Terminal Aerodrome Forecast
Issued by NWS Sterling, VA

Current Version | Previous Version | Graphics & Text | Print | Product List | Glossary On
Versions: 1 2 3 4 5 6 7 8 9 10 11 12 13 14 15 16 17 18 19 20
000
FTUS41 KLWX 202300
TAFMRB
TAF
KMRB 202333Z 2100/2124 14004KT P6SM BKN050
     FM210300 VRB03KT 5SM BR BKN050
     FM210600 13004KT 5SM BR BKN050
     FM210900 VRB03KT 3SM BR BKN015
     FM211400 13005KT P6SM SCT025 BKN050=

USA.gov is the U.S. government's official web portal to all federal, state and local government web resources and services.